sensor_id;sensor_type;location;lat;lon;timestamp;pressure;altitude;pressure_sealevel;temperature;humidity
4449;BME280;2237;51.870;6.160;2023-03-05T00:02:00;102099.56;;;7.08;100.00
4449;BME280;2237;51.870;6.160;2023-03-05T00:04:26;102098.69;;;7.06;100.00
4449;BME280;2237;51.870;6.160;2023-03-05T00:06:52;102095.16;;;7.00;100.00
4449;BME280;2237;51.870;6.160;2023-03-05T00:09:20;102096.06;;;7.03;100.00
4449;BME280;2237;51.870;6.160;2023-03-05T00:11:47;102090.84;;;7.00;100.00
4449;BME280;2237;51.870;6.160;2023-03-05T00:14:13;102091.72;;;6.99;100.00
4449;BME280;2237;51.870;6.160;2023-03-05T00:16:39;102082.13;;;6.92;100.00
4449;BME280;2237;51.870;6.160;2023-03-05T00:19:06;102084.66;;;6.89;100.00
4449;BME280;2237;51.870;6.160;2023-03-05T00:21:35;102075.97;;;6.86;100.00
4449;BME280;2237;51.870;6.160;2023-03-05T00:24:05;102080.19;;;6.77;100.00
4449;BME280;2237;51.870;6.160;2023-03-05T00:26:35;102085.28;;;6.70;100.00
4449;BME280;2237;51.870;6.160;2023-03-05T00:29:02;102082.53;;;6.58;100.00
4449;BME280;2237;51.870;6.160;2023-03-05T00:31:30;102073.00;;;6.55;100.00
4449;BME280;2237;51.870;6.160;2023-03-05T00:33:59;102072.25;;;6.64;100.00
4449;BME280;2237;51.870;6.160;2023-03-05T00:36:26;102072.22;;;6.61;100.00
4449;BME280;2237;51.870;6.160;2023-03-05T00:38:53;102066.88;;;6.49;100.00
4449;BME280;2237;51.870;6.160;2023-03-05T00:41:20;102065.16;;;6.51;100.00
4449;BME280;2237;51.870;6.160;2023-03-05T00:43:47;102067.69;;;6.46;100.00
4449;BME280;2237;51.870;6.160;2023-03-05T00:46:13;102065.19;;;6.54;100.00
4449;BME280;2237;51.870;6.160;2023-03-05T00:48:40;102062.69;;;6.60;100.00
4449;BME280;2237;51.870;6.160;2023-03-05T00:51:06;102052.31;;;6.57;100.00
4449;BME280;2237;51.870;6.160;2023-03-05T00:53:34;102057.31;;;6.43;100.00
4449;BME280;2237;51.870;6.160;2023-03-05T00:56:01;102056.41;;;6.41;100.00
4449;BME280;2237;51.870;6.160;2023-03-05T00:58:27;102047.03;;;6.49;100.00
4449;BME280;2237;51.870;6.160;2023-03-05T01:00:58;102050.47;;;6.48;100.00
4449;BME280;2237;51.870;6.160;2023-03-05T01:03:25;102040.94;;;6.46;100.00
4449;BME280;2237;51.870;6.160;2023-03-05T01:05:52;102040.25;;;6.57;100.00
4449;BME280;2237;51.870;6.160;2023-03-05T01:08:18;102042.03;;;6.63;100.00
4449;BME280;2237;51.870;6.160;2023-03-05T01:10:45;102044.72;;;6.67;100.00
4449;BME280;2237;51.870;6.160;2023-03-05T01:13:11;102043.78;;;6.64;100.00
4449;BME280;2237;51.870;6.160;2023-03-05T01:15:37;102037.72;;;6.63;100.00
4449;BME280;2237;51.870;6.160;2023-03-05T01:18:04;102034.97;;;6.50;100.00
4449;BME280;2237;51.870;6.160;2023-03-05T01:20:30;102040.19;;;6.54;100.00
4449;BME280;2237;51.870;6.160;2023-03-05T01:22:57;102033.44;;;6.64;100.00
4449;BME280;2237;51.870;6.160;2023-03-05T01:25:24;102029.06;;;6.60;100.00
4449;BME280;2237;51.870;6.160;2023-03-05T01:27:51;102027.44;;;6.68;100.00
4449;BME280;2237;51.870;6.160;2023-03-05T01:30:17;102021.41;;;6.69;100.00
4449;BME280;2237;51.870;6.160;2023-03-05T01:32:45;102024.00;;;6.69;100.00
4449;BME280;2237;51.870;6.160;2023-03-05T01:35:16;102021.50;;;6.75;100.00
4449;BME280;2237;51.870;6.160;2023-03-05T01:37:44;102017.06;;;6.68;100.00
4449;BME280;2237;51.870;6.160;2023-03-05T01:40:12;102017.97;;;6.70;100.00
4449;BME280;2237;51.870;6.160;2023-03-05T01:42:39;102017.16;;;6.72;100.00
4449;BME280;2237;51.870;6.160;2023-03-05T01:45:12;102003.22;;;6.63;100.00
4449;BME280;2237;51.870;6.160;2023-03-05T01:47:39;102004.09;;;6.65;100.00
4449;BME280;2237;51.870;6.160;2023-03-05T01:50:08;102000.63;;;6.63;100.00
4449;BME280;2237;51.870;6.160;2023-03-05T01:52:37;101991.19;;;6.68;100.00
4449;BME280;2237;51.870;6.160;2023-03-05T01:55:08;101984.00;;;6.44;100.00
4449;BME280;2237;51.870;6.160;2023-03-05T01:57:40;101980.34;;;6.30;100.00
4449;BME280;2237;51.870;6.160;2023-03-05T02:00:36;101978.63;;;6.31;100.00
4449;BME280;2237;51.870;6.160;2023-03-05T02:03:07;101976.22;;;6.41;100.00
4449;BME280;2237;51.870;6.160;2023-03-05T02:05:36;101971.00;;;6.38;100.00
4449;BME280;2237;51.870;6.160;2023-03-05T02:08:05;101973.63;;;6.43;100.00
4449;BME280;2237;51.870;6.160;2023-03-05T02:10:35;101968.41;;;6.40;100.00
4449;BME280;2237;51.870;6.160;2023-03-05T02:13:06;101961.44;;;6.36;100.00
4449;BME280;2237;51.870;6.160;2023-03-05T02:15:34;101962.31;;;6.36;100.00
4449;BME280;2237;51.870;6.160;2023-03-05T02:18:00;101958.13;;;6.46;100.00
4449;BME280;2237;51.870;6.160;2023-03-05T02:20:30;101957.38;;;6.53;100.00
4449;BME280;2237;51.870;6.160;2023-03-05T02:22:57;101957.34;;;6.51;100.00
4449;BME280;2237;51.870;6.160;2023-03-05T02:25:25;101953.84;;;6.48;100.00
4449;BME280;2237;51.870;6.160;2023-03-05T02:27:57;101947.75;;;6.43;100.00
4449;BME280;2237;51.870;6.160;2023-03-05T02:30:25;101941.53;;;6.30;100.00
4449;BME280;2237;51.870;6.160;2023-03-05T02:32:51;101938.13;;;6.31;100.00
4449;BME280;2237;51.870;6.160;2023-03-05T02:35:18;101938.16;;;6.34;100.00
4449;BME280;2237;51.870;6.160;2023-03-05T02:37:44;101932.94;;;6.31;100.00
4449;BME280;2237;51.870;6.160;2023-03-05T02:40:12;101932.97;;;6.33;100.00
4449;BME280;2237;51.870;6.160;2023-03-05T02:42:39;101928.66;;;6.32;100.00
4449;BME280;2237;51.870;6.160;2023-03-05T02:45:06;101927.66;;;6.22;100.00
4449;BME280;2237;51.870;6.160;2023-03-05T02:47:32;101920.78;;;6.24;100.00
4449;BME280;2237;51.870;6.160;2023-03-05T02:49:59;101906.19;;;6.29;100.00
4449;BME280;2237;51.870;6.160;2023-03-05T02:52:26;101909.66;;;6.31;100.00
4449;BME280;2237;51.870;6.160;2023-03-05T02:54:53;101907.13;;;6.34;100.00
4449;BME280;2237;51.870;6.160;2023-03-05T02:57:20;101901.91;;;6.30;100.00
4449;BME280;2237;51.870;6.160;2023-03-05T02:59:46;101901.81;;;6.23;100.00
4449;BME280;2237;51.870;6.160;2023-03-05T03:02:13;101900.13;;;6.27;100.00
4449;BME280;2237;51.870;6.160;2023-03-05T03:04:40;101889.72;;;6.22;100.00
4449;BME280;2237;51.870;6.160;2023-03-05T03:07:06;101897.53;;;6.27;100.00
4449;BME280;2237;51.870;6.160;2023-03-05T03:09:33;101896.53;;;6.14;100.00
4449;BME280;2237;51.870;6.160;2023-03-05T03:12:01;101892.97;;;6.08;100.00
4449;BME280;2237;51.870;6.160;2023-03-05T03:14:33;101885.22;;;6.06;100.00
4449;BME280;2237;51.870;6.160;2023-03-05T03:17:05;101873.22;;;6.11;100.00
4449;BME280;2237;51.870;6.160;2023-03-05T03:19:32;101879.38;;;6.22;100.00
4449;BME280;2237;51.870;6.160;2023-03-05T03:21:59;101863.06;;;6.28;100.00
4449;BME280;2237;51.870;6.160;2023-03-05T03:24:25;101863.91;;;6.27;100.00
4449;BME280;2237;51.870;6.160;2023-03-05T03:26:52;101869.91;;;6.24;100.00
4449;BME280;2237;51.870;6.160;2023-03-05T03:29:18;101857.75;;;6.14;100.00
4449;BME280;2237;51.870;6.160;2023-03-05T03:31:44;101857.78;;;6.19;100.00
4449;BME280;2237;51.870;6.160;2023-03-05T03:34:12;101862.81;;;6.08;100.00
4449;BME280;2237;51.870;6.160;2023-03-05T03:36:41;101861.19;;;6.16;100.00
4449;BME280;2237;51.870;6.160;2023-03-05T03:39:08;101849.19;;;6.20;100.00
4449;BME280;2237;51.870;6.160;2023-03-05T03:41:57;101843.25;;;6.29;100.00
4449;BME280;2237;51.870;6.160;2023-03-05T03:44:23;101836.34;;;6.29;100.00
4449;BME280;2237;51.870;6.160;2023-03-05T03:46:50;101831.13;;;6.24;100.00
4449;BME280;2237;51.870;6.160;2023-03-05T03:49:19;101832.75;;;6.15;100.00
4449;BME280;2237;51.870;6.160;2023-03-05T03:51:46;101830.88;;;6.03;100.00
4449;BME280;2237;51.870;6.160;2023-03-05T03:54:15;101831.81;;;6.08;100.00
4449;BME280;2237;51.870;6.160;2023-03-05T03:56:41;101831.75;;;6.05;100.00
4449;BME280;2237;51.870;6.160;2023-03-05T03:59:08;101824.84;;;6.03;100.00
4449;BME280;2237;51.870;6.160;2023-03-05T04:01:35;101830.94;;;6.06;100.00
4449;BME280;2237;51.870;6.160;2023-03-05T04:04:02;101828.38;;;6.11;100.00
4449;BME280;2237;51.870;6.160;2023-03-05T04:06:29;101826.66;;;6.11;100.00
4449;BME280;2237;51.870;6.160;2023-03-05T04:08:56;101825.78;;;6.09;100.00
4449;BME280;2237;51.870;6.160;2023-03-05T04:11:23;101816.16;;;5.99;100.00
4449;BME280;2237;51.870;6.160;2023-03-05T04:13:49;101817.13;;;6.07;100.00
4449;BME280;2237;51.870;6.160;2023-03-05T04:16:16;101809.41;;;6.10;100.00
4449;BME280;2237;51.870;6.160;2023-03-05T04:18:42;101812.00;;;6.09;100.00
4449;BME280;2237;51.870;6.160;2023-03-05T04:21:09;101812.78;;;6.03;100.00
4449;BME280;2237;51.870;6.160;2023-03-05T04:23:35;101809.31;;;6.03;100.00
4449;BME280;2237;51.870;6.160;2023-03-05T04:26:03;101806.81;;;6.10;100.00
4449;BME280;2237;51.870;6.160;2023-03-05T04:28:29;101805.06;;;6.08;100.00
4449;BME280;2237;51.870;6.160;2023-03-05T04:30:55;101800.69;;;6.02;100.00
4449;BME280;2237;51.870;6.160;2023-03-05T04:33:22;101806.59;;;5.91;100.00
4449;BME280;2237;51.870;6.160;2023-03-05T04:35:49;101797.03;;;5.85;100.00
4449;BME280;2237;51.870;6.160;2023-03-05T04:38:16;101791.75;;;5.79;100.00
4449;BME280;2237;51.870;6.160;2023-03-05T04:40:43;101803.72;;;5.71;100.00
4449;BME280;2237;51.870;6.160;2023-03-05T04:43:10;101803.72;;;5.71;100.00
4449;BME280;2237;51.870;6.160;2023-03-05T04:45:40;101802.81;;;5.69;100.00
4449;BME280;2237;51.870;6.160;2023-03-05T04:48:08;101796.94;;;5.81;100.00
4449;BME280;2237;51.870;6.160;2023-03-05T04:50:36;101792.56;;;5.75;100.00
4449;BME280;2237;51.870;6.160;2023-03-05T04:53:03;101790.03;;;5.80;100.00
4449;BME280;2237;51.870;6.160;2023-03-05T04:55:29;101791.69;;;5.73;100.00
4449;BME280;2237;51.870;6.160;2023-03-05T04:57:56;101787.22;;;5.61;100.00
4449;BME280;2237;51.870;6.160;2023-03-05T05:00:23;101794.06;;;5.58;100.00
4449;BME280;2237;51.870;6.160;2023-03-05T05:02:50;101784.38;;;5.43;100.00
4449;BME280;2237;51.870;6.160;2023-03-05T05:05:20;101773.25;;;5.47;100.00
4449;BME280;2237;51.870;6.160;2023-03-05T05:07:47;101775.09;;;5.56;100.00
4449;BME280;2237;51.870;6.160;2023-03-05T05:10:15;101780.31;;;5.59;100.00
4449;BME280;2237;51.870;6.160;2023-03-05T05:12:42;101769.25;;;5.72;100.00
4449;BME280;2237;51.870;6.160;2023-03-05T05:15:10;101767.50;;;5.69;100.00
4449;BME280;2237;51.870;6.160;2023-03-05T05:17:36;101769.25;;;5.70;100.00
4449;BME280;2237;51.870;6.160;2023-03-05T05:20:04;101764.88;;;5.66;100.00
4449;BME280;2237;51.870;6.160;2023-03-05T05:22:34;101769.34;;;5.78;100.00
4449;BME280;2237;51.870;6.160;2023-03-05T05:25:00;101767.50;;;5.68;100.00
4449;BME280;2237;51.870;6.160;2023-03-05T05:27:27;101762.31;;;5.66;100.00
4449;BME280;2237;51.870;6.160;2023-03-05T05:29:53;101762.22;;;5.59;100.00
4449;BME280;2237;51.870;6.160;2023-03-05T05:32:21;101761.25;;;5.52;100.00
4449;BME280;2237;51.870;6.160;2023-03-05T05:34:56;101760.47;;;5.56;100.00
4449;BME280;2237;51.870;6.160;2023-03-05T05:37:23;101759.41;;;5.42;100.00
4449;BME280;2237;51.870;6.160;2023-03-05T05:39:50;101761.19;;;5.46;100.00
4449;BME280;2237;51.870;6.160;2023-03-05T05:42:19;101758.69;;;5.52;100.00
4449;BME280;2237;51.870;6.160;2023-03-05T05:44:46;101750.00;;;5.47;100.00
4449;BME280;2237;51.870;6.160;2023-03-05T05:47:13;101750.75;;;5.40;100.00
4449;BME280;2237;51.870;6.160;2023-03-05T05:49:40;101748.78;;;5.21;100.00
4449;BME280;2237;51.870;6.160;2023-03-05T05:52:06;101756.63;;;5.29;100.00
4449;BME280;2237;51.870;6.160;2023-03-05T05:54:33;101747.22;;;5.31;100.00
4449;BME280;2237;51.870;6.160;2023-03-05T05:56:59;101743.84;;;5.36;100.00
4449;BME280;2237;51.870;6.160;2023-03-05T05:59:26;101753.19;;;5.30;100.00
4449;BME280;2237;51.870;6.160;2023-03-05T06:01:52;101744.72;;;5.37;100.00
4449;BME280;2237;51.870;6.160;2023-03-05T06:04:19;101744.00;;;5.48;100.00
4449;BME280;2237;51.870;6.160;2023-03-05T06:06:45;101744.75;;;5.43;100.00
4449;BME280;2237;51.870;6.160;2023-03-05T06:09:11;101748.09;;;5.33;100.00
4449;BME280;2237;51.870;6.160;2023-03-05T06:11:38;101747.28;;;5.38;100.00
4449;BME280;2237;51.870;6.160;2023-03-05T06:14:04;101749.03;;;5.39;100.00
4449;BME280;2237;51.870;6.160;2023-03-05T06:16:32;101746.56;;;5.47;100.00
4449;BME280;2237;51.870;6.160;2023-03-05T06:18:59;101745.59;;;5.39;100.00
4449;BME280;2237;51.870;6.160;2023-03-05T06:21:30;101745.63;;;5.42;100.00
4449;BME280;2237;51.870;6.160;2023-03-05T06:23:56;101739.38;;;5.25;100.00
4449;BME280;2237;51.870;6.160;2023-03-05T06:26:24;101741.16;;;5.32;100.00
4449;BME280;2237;51.870;6.160;2023-03-05T06:28:51;101738.72;;;5.39;100.00
4449;BME280;2237;51.870;6.160;2023-03-05T06:31:20;101740.44;;;5.40;100.00
4449;BME280;2237;51.870;6.160;2023-03-05T06:33:47;101738.63;;;5.35;100.00
4449;BME280;2237;51.870;6.160;2023-03-05T06:36:16;101740.38;;;5.37;100.00
4449;BME280;2237;51.870;6.160;2023-03-05T06:38:43;101739.69;;;5.47;100.00
4449;BME280;2237;51.870;6.160;2023-03-05T06:41:12;101740.56;;;5.49;100.00
4449;BME280;2237;51.870;6.160;2023-03-05T06:43:41;101745.78;;;5.54;100.00
4449;BME280;2237;51.870;6.160;2023-03-05T06:46:19;101741.66;;;5.68;100.00
4449;BME280;2237;51.870;6.160;2023-03-05T06:48:46;101736.66;;;5.80;100.00
4449;BME280;2237;51.870;6.160;2023-03-05T06:51:16;101734.09;;;5.85;100.00
4449;BME280;2237;51.870;6.160;2023-03-05T06:53:43;101724.75;;;5.91;100.00
4449;BME280;2237;51.870;6.160;2023-03-05T06:56:10;101723.66;;;5.74;100.00
4449;BME280;2237;51.870;6.160;2023-03-05T06:58:39;101736.66;;;5.82;100.00
4449;BME280;2237;51.870;6.160;2023-03-05T07:01:06;101728.25;;;5.99;100.00
4449;BME280;2237;51.870;6.160;2023-03-05T07:03:34;101735.13;;;5.94;100.00
4449;BME280;2237;51.870;6.160;2023-03-05T07:06:02;101731.66;;;5.94;100.00
4449;BME280;2237;51.870;6.160;2023-03-05T07:08:29;101720.25;;;5.81;100.00
4449;BME280;2237;51.870;6.160;2023-03-05T07:10:56;101730.59;;;5.81;100.00
4449;BME280;2237;51.870;6.160;2023-03-05T07:13:22;101726.41;;;5.89;100.00
4449;BME280;2237;51.870;6.160;2023-03-05T07:15:49;101723.06;;;5.95;100.00
4449;BME280;2237;51.870;6.160;2023-03-05T07:18:15;101723.13;;;6.02;100.00
4449;BME280;2237;51.870;6.160;2023-03-05T07:20:42;101712.69;;;5.92;100.00
4449;BME280;2237;51.870;6.160;2023-03-05T07:23:08;101723.19;;;6.10;100.00
4449;BME280;2237;51.870;6.160;2023-03-05T07:25:36;101718.09;;;6.14;100.00
4449;BME280;2237;51.870;6.160;2023-03-05T07:28:04;101718.09;;;6.14;100.00
4449;BME280;2237;51.870;6.160;2023-03-05T07:30:33;101713.84;;;6.22;100.00
4449;BME280;2237;51.870;6.160;2023-03-05T07:32:59;101725.13;;;6.31;100.00
4449;BME280;2237;51.870;6.160;2023-03-05T07:35:27;101716.47;;;6.27;100.00
4449;BME280;2237;51.870;6.160;2023-03-05T07:37:53;101721.63;;;6.25;100.00
4449;BME280;2237;51.870;6.160;2023-03-05T07:40:20;101718.28;;;6.33;100.00
4449;BME280;2237;51.870;6.160;2023-03-05T07:42:47;101713.88;;;6.27;100.00
4449;BME280;2237;51.870;6.160;2023-03-05T07:45:13;101713.06;;;6.31;100.00
4449;BME280;2237;51.870;6.160;2023-03-05T07:47:40;101713.06;;;6.30;100.00
4449;BME280;2237;51.870;6.160;2023-03-05T07:50:07;101714.91;;;6.41;100.00
4449;BME280;2237;51.870;6.160;2023-03-05T07:52:33;101716.69;;;6.50;100.00
4449;BME280;2237;51.870;6.160;2023-03-05T07:55:00;101716.75;;;6.59;100.00
4449;BME280;2237;51.870;6.160;2023-03-05T07:57:26;101709.09;;;6.71;100.00
4449;BME280;2237;51.870;6.160;2023-03-05T07:59:52;101702.97;;;6.60;100.00
4449;BME280;2237;51.870;6.160;2023-03-05T08:02:19;101709.94;;;6.68;100.00
4449;BME280;2237;51.870;6.160;2023-03-05T08:04:45;101699.72;;;6.87;100.00
4449;BME280;2237;51.870;6.160;2023-03-05T08:07:15;101702.25;;;6.82;100.00
4449;BME280;2237;51.870;6.160;2023-03-05T08:09:41;101701.44;;;6.89;100.00
4449;BME280;2237;51.870;6.160;2023-03-05T08:12:08;101697.88;;;6.67;100.00
4449;BME280;2237;51.870;6.160;2023-03-05T08:14:35;101696.16;;;6.69;100.00
4449;BME280;2237;51.870;6.160;2023-03-05T08:17:03;101698.84;;;6.86;100.00
4449;BME280;2237;51.870;6.160;2023-03-05T08:19:30;101697.28;;;7.08;100.00
4449;BME280;2237;51.870;6.160;2023-03-05T08:21:56;101698.16;;;7.14;100.00
4449;BME280;2237;51.870;6.160;2023-03-05T08:24:22;101688.53;;;6.92;100.00
4449;BME280;2237;51.870;6.160;2023-03-05T08:26:57;101692.84;;;6.92;100.00
4449;BME280;2237;51.870;6.160;2023-03-05T08:29:25;101691.97;;;6.90;100.00
4449;BME280;2237;51.870;6.160;2023-03-05T08:31:51;101695.34;;;6.78;100.00
4449;BME280;2237;51.870;6.160;2023-03-05T08:34:21;101688.56;;;6.98;100.00
4449;BME280;2237;51.870;6.160;2023-03-05T08:36:48;101674.69;;;6.89;100.00
4449;BME280;2237;51.870;6.160;2023-03-05T08:39:15;101687.72;;;7.05;100.00
4449;BME280;2237;51.870;6.160;2023-03-05T08:41:41;101679.91;;;6.90;100.00
4449;BME280;2237;51.870;6.160;2023-03-05T08:44:08;101681.81;;;7.26;100.00
4449;BME280;2237;51.870;6.160;2023-03-05T08:46:34;101674.13;;;7.52;100.00
4449;BME280;2237;51.870;6.160;2023-03-05T08:49:02;101678.50;;;7.57;100.00
4449;BME280;2237;51.870;6.160;2023-03-05T08:51:28;101674.97;;;7.38;100.00
4449;BME280;2237;51.870;6.160;2023-03-05T08:53:57;101674.16;;;7.49;100.00
4449;BME280;2237;51.870;6.160;2023-03-05T08:56:23;101671.66;;;7.77;100.00
4449;BME280;2237;51.870;6.160;2023-03-05T08:58:52;101668.25;;;8.06;100.00
4449;BME280;2237;51.870;6.160;2023-03-05T09:01:19;101674.31;;;8.18;100.00
4449;BME280;2237;51.870;6.160;2023-03-05T09:03:45;101667.44;;;8.35;100.00
4449;BME280;2237;51.870;6.160;2023-03-05T09:06:12;101667.44;;;8.41;100.00
4449;BME280;2237;51.870;6.160;2023-03-05T09:08:39;101666.50;;;8.11;100.00
4449;BME280;2237;51.870;6.160;2023-03-05T09:11:07;101664.84;;;8.41;100.00
4449;BME280;2237;51.870;6.160;2023-03-05T09:13:34;101658.78;;;8.36;100.00
4449;BME280;2237;51.870;6.160;2023-03-05T09:16:03;101660.50;;;8.56;100.00
4449;BME280;2237;51.870;6.160;2023-03-05T09:18:30;101649.22;;;8.75;100.00
4449;BME280;2237;51.870;6.160;2023-03-05T09:20:57;101649.28;;;8.41;100.00
4449;BME280;2237;51.870;6.160;2023-03-05T09:23:23;101653.56;;;8.33;100.00
4449;BME280;2237;51.870;6.160;2023-03-05T09:25:50;101655.34;;;8.30;100.00
4449;BME280;2237;51.870;6.160;2023-03-05T09:28:16;101654.44;;;8.50;100.00
4449;BME280;2237;51.870;6.160;2023-03-05T09:30:43;101649.22;;;8.81;100.00
4449;BME280;2237;51.870;6.160;2023-03-05T09:33:09;101640.44;;;9.18;100.00
4449;BME280;2237;51.870;6.160;2023-03-05T09:35:36;101642.25;;;8.95;100.00
4449;BME280;2237;51.870;6.160;2023-03-05T09:38:03;101636.25;;;8.75;100.00
4449;BME280;2237;51.870;6.160;2023-03-05T09:40:39;101637.03;;;9.01;100.00
4449;BME280;2237;51.870;6.160;2023-03-05T09:43:48;101624.75;;;9.44;100.00
4449;BME280;2237;51.870;6.160;2023-03-05T09:52:22;101629.38;;;8.40;100.00
4449;BME280;2237;51.870;6.160;2023-03-05T09:54:55;101631.06;;;8.57;100.00
4449;BME280;2237;51.870;6.160;2023-03-05T09:57:26;101631.94;;;8.36;100.00
4449;BME280;2237;51.870;6.160;2023-03-05T09:59:57;101632.81;;;8.45;100.00
4449;BME280;2237;51.870;6.160;2023-03-05T10:02:27;101631.91;;;8.84;100.00
4449;BME280;2237;51.870;6.160;2023-03-05T10:07:46;101606.69;;;9.15;100.00
4449;BME280;2237;51.870;6.160;2023-03-05T10:10:22;101611.03;;;9.05;100.00
4449;BME280;2237;51.870;6.160;2023-03-05T10:12:54;101608.38;;;9.25;100.00
4449;BME280;2237;51.870;6.160;2023-03-05T10:18:06;101604.13;;;9.01;100.00
4449;BME280;2237;51.870;6.160;2023-03-05T10:20:48;101608.53;;;8.75;100.00
4449;BME280;2237;51.870;6.160;2023-03-05T10:23:24;101600.81;;;8.52;100.00
4449;BME280;2237;51.870;6.160;2023-03-05T10:28:41;101593.00;;;8.60;100.00
4449;BME280;2237;51.870;6.160;2023-03-05T10:31:12;101582.56;;;8.74;100.00
4449;BME280;2237;51.870;6.160;2023-03-05T10:34:00;101588.66;;;8.64;100.00
4449;BME280;2237;51.870;6.160;2023-03-05T10:36:41;101581.59;;;9.03;100.00
4449;BME280;2237;51.870;6.160;2023-03-05T10:39:41;101584.13;;;9.20;100.00
4449;BME280;2237;51.870;6.160;2023-03-05T10:45:17;101576.44;;;8.96;100.00
4449;BME280;2237;51.870;6.160;2023-03-05T10:47:54;101570.38;;;8.97;100.00
4449;BME280;2237;51.870;6.160;2023-03-05T10:50:26;101570.44;;;8.88;100.00
4449;BME280;2237;51.870;6.160;2023-03-05T10:53:09;101574.75;;;8.80;100.00
4449;BME280;2237;51.870;6.160;2023-03-05T10:55:39;101572.13;;;8.99;100.00
4449;BME280;2237;51.870;6.160;2023-03-05T10:58:13;101571.31;;;8.75;100.00
4449;BME280;2237;51.870;6.160;2023-03-05T11:00:56;101567.84;;;8.79;100.00
4449;BME280;2237;51.870;6.160;2023-03-05T11:03:23;101561.78;;;8.80;100.00
4449;BME280;2237;51.870;6.160;2023-03-05T11:05:58;101557.47;;;8.74;100.00
4449;BME280;2237;51.870;6.160;2023-03-05T11:08:34;101554.88;;;8.76;100.00
4449;BME280;2237;51.870;6.160;2023-03-05T11:11:18;101551.38;;;8.86;100.00
4449;BME280;2237;51.870;6.160;2023-03-05T11:13:59;101552.25;;;8.83;100.00
4449;BME280;2237;51.870;6.160;2023-03-05T11:16:34;101553.00;;;9.14;100.00
4449;BME280;2237;51.870;6.160;2023-03-05T11:19:17;101548.66;;;9.12;100.00
4449;BME280;2237;51.870;6.160;2023-03-05T11:22:14;101550.31;;;9.31;100.00
4449;BME280;2237;51.870;6.160;2023-03-05T11:24:41;101540.69;;;9.40;100.00
4449;BME280;2237;51.870;6.160;2023-03-05T11:27:23;101533.84;;;9.27;100.00
4449;BME280;2237;51.870;6.160;2023-03-05T11:29:51;101531.09;;;9.50;100.00
4449;BME280;2237;51.870;6.160;2023-03-05T11:32:23;101532.75;;;9.64;97.48
4449;BME280;2237;51.870;6.160;2023-03-05T11:34:51;101531.66;;;9.90;97.73
4449;BME280;2237;51.870;6.160;2023-03-05T11:37:38;101525.41;;;10.12;97.00
4449;BME280;2237;51.870;6.160;2023-03-05T11:40:16;101522.75;;;10.19;95.22
4449;BME280;2237;51.870;6.160;2023-03-05T11:42:54;101522.81;;;10.13;95.23
4449;BME280;2237;51.870;6.160;2023-03-05T11:45:21;101517.13;;;9.68;94.32
4449;BME280;2237;51.870;6.160;2023-03-05T11:47:59;101513.31;;;10.05;94.41
4449;BME280;2237;51.870;6.160;2023-03-05T11:50:32;101514.13;;;10.16;91.32
4449;BME280;2237;51.870;6.160;2023-03-05T11:53:12;101502.63;;;10.38;88.01
4449;BME280;2237;51.870;6.160;2023-03-05T11:55:44;101494.91;;;10.29;86.46
4449;BME280;2237;51.870;6.160;2023-03-05T11:58:45;101496.75;;;10.18;86.09
4449;BME280;2237;51.870;6.160;2023-03-05T12:01:16;101494.16;;;10.16;85.82
4449;BME280;2237;51.870;6.160;2023-03-05T12:03:43;101491.63;;;10.09;84.97
4449;BME280;2237;51.870;6.160;2023-03-05T12:08:49;101469.50;;;10.49;84.30
4449;BME280;2237;51.870;6.160;2023-03-05T12:11:24;101475.81;;;10.30;78.27
4449;BME280;2237;51.870;6.160;2023-03-05T12:14:03;101467.50;;;10.72;75.22
4449;BME280;2237;51.870;6.160;2023-03-05T12:16:41;101461.78;;;11.09;73.06
4449;BME280;2237;51.870;6.160;2023-03-05T12:22:19;101459.44;;;10.91;73.75
4449;BME280;2237;51.870;6.160;2023-03-05T12:24:46;101447.44;;;10.79;74.95
4449;BME280;2237;51.870;6.160;2023-03-05T12:27:14;101442.50;;;10.58;73.80
4449;BME280;2237;51.870;6.160;2023-03-05T12:29:44;101447.16;;;10.33;71.99
4449;BME280;2237;51.870;6.160;2023-03-05T12:35:04;101436.94;;;10.84;72.81
4449;BME280;2237;51.870;6.160;2023-03-05T12:47:42;101406.50;;;11.94;58.87
4449;BME280;2237;51.870;6.160;2023-03-05T12:55:37;101404.94;;;11.32;58.20
4449;BME280;2237;51.870;6.160;2023-03-05T13:00:45;101393.66;;;10.75;63.46
4449;BME280;2237;51.870;6.160;2023-03-05T13:03:21;101394.69;;;9.89;67.52
4449;BME280;2237;51.870;6.160;2023-03-05T13:05:54;101387.59;;;10.03;68.22
4449;BME280;2237;51.870;6.160;2023-03-05T13:08:27;101381.66;;;9.89;69.64
4449;BME280;2237;51.870;6.160;2023-03-05T13:11:15;101377.06;;;10.10;70.62
4449;BME280;2237;51.870;6.160;2023-03-05T13:13:45;101364.13;;;10.06;71.15
4449;BME280;2237;51.870;6.160;2023-03-05T13:16:34;101365.09;;;9.96;71.13
4449;BME280;2237;51.870;6.160;2023-03-05T13:19:02;101370.22;;;10.02;70.51
4449;BME280;2237;51.870;6.160;2023-03-05T13:21:31;101360.81;;;9.92;67.80
4449;BME280;2237;51.870;6.160;2023-03-05T13:23:59;101356.63;;;9.79;74.54
4449;BME280;2237;51.870;6.160;2023-03-05T13:26:38;101355.88;;;9.69;78.95
4449;BME280;2237;51.870;6.160;2023-03-05T13:29:09;101351.56;;;9.63;80.98
4449;BME280;2237;51.870;6.160;2023-03-05T13:31:47;101353.19;;;9.77;81.84
4449;BME280;2237;51.870;6.160;2023-03-05T13:34:17;101347.19;;;9.70;81.01
4449;BME280;2237;51.870;6.160;2023-03-05T13:36:49;101346.38;;;9.63;81.88
4449;BME280;2237;51.870;6.160;2023-03-05T13:39:21;101345.50;;;9.66;83.61
4449;BME280;2237;51.870;6.160;2023-03-05T13:42:01;101339.47;;;9.62;83.99
4449;BME280;2237;51.870;6.160;2023-03-05T13:44:29;101341.22;;;9.60;85.47
4449;BME280;2237;51.870;6.160;2023-03-05T13:47:19;101332.53;;;9.61;87.06
4449;BME280;2237;51.870;6.160;2023-03-05T13:49:46;101336.06;;;9.57;87.86
4449;BME280;2237;51.870;6.160;2023-03-05T13:52:23;101330.00;;;9.55;89.56
4449;BME280;2237;51.870;6.160;2023-03-05T13:54:50;101329.19;;;9.50;90.13
4449;BME280;2237;51.870;6.160;2023-03-05T13:57:41;101315.34;;;9.48;91.69
4449;BME280;2237;51.870;6.160;2023-03-05T14:00:36;101314.53;;;9.40;93.82
4449;BME280;2237;51.870;6.160;2023-03-05T14:03:25;101312.09;;;9.28;97.55
4449;BME280;2237;51.870;6.160;2023-03-05T14:05:52;101303.50;;;9.19;98.32
4449;BME280;2237;51.870;6.160;2023-03-05T14:08:21;101308.63;;;9.23;97.79
4449;BME280;2237;51.870;6.160;2023-03-05T14:10:52;101298.22;;;9.26;97.75